sensor_id;sensor_type;location;lat;lon;timestamp;P1;durP1;ratioP1;P2;durP2;ratioP2
39264;SDS011;42646;51.910;7.724;2023-08-07T00:00:08;4.13;;;1.80;;
39264;SDS011;42646;51.910;7.724;2023-08-07T00:02:36;3.00;;;1.65;;
39264;SDS011;42646;51.910;7.724;2023-08-07T00:05:05;3.20;;;1.60;;
39264;SDS011;42646;51.910;7.724;2023-08-07T00:07:33;4.43;;;1.65;;
39264;SDS011;42646;51.910;7.724;2023-08-07T00:10:03;3.53;;;1.83;;
39264;SDS011;42646;51.910;7.724;2023-08-07T00:12:32;3.28;;;1.70;;
39264;SDS011;42646;51.910;7.724;2023-08-07T00:15:00;3.38;;;1.67;;
39264;SDS011;42646;51.910;7.724;2023-08-07T00:17:29;2.63;;;1.85;;
39264;SDS011;42646;51.910;7.724;2023-08-07T00:19:57;2.90;;;1.60;;
39264;SDS011;42646;51.910;7.724;2023-08-07T00:22:25;2.22;;;1.50;;
39264;SDS011;42646;51.910;7.724;2023-08-07T00:24:54;3.67;;;1.80;;
39264;SDS011;42646;51.910;7.724;2023-08-07T00:27:22;3.88;;;1.63;;
39264;SDS011;42646;51.910;7.724;2023-08-07T00:29:50;3.05;;;1.50;;
39264;SDS011;42646;51.910;7.724;2023-08-07T00:32:17;3.38;;;1.60;;
39264;SDS011;42646;51.910;7.724;2023-08-07T00:34:47;2.05;;;1.45;;
39264;SDS011;42646;51.910;7.724;2023-08-07T00:37:15;3.33;;;1.80;;
39264;SDS011;42646;51.910;7.724;2023-08-07T00:39:45;2.63;;;1.50;;
39264;SDS011;42646;51.910;7.724;2023-08-07T00:42:13;2.58;;;1.45;;
39264;SDS011;42646;51.910;7.724;2023-08-07T00:44:41;3.20;;;1.80;;
39264;SDS011;42646;51.910;7.724;2023-08-07T00:47:09;2.72;;;1.80;;
39264;SDS011;42646;51.910;7.724;2023-08-07T00:49:37;2.55;;;1.70;;
39264;SDS011;42646;51.910;7.724;2023-08-07T00:52:08;3.10;;;1.70;;
39264;SDS011;42646;51.910;7.724;2023-08-07T00:54:37;3.20;;;1.73;;
39264;SDS011;42646;51.910;7.724;2023-08-07T00:57:07;3.45;;;1.60;;
39264;SDS011;42646;51.910;7.724;2023-08-07T00:59:38;4.32;;;1.77;;
39264;SDS011;42646;51.910;7.724;2023-08-07T01:02:07;3.38;;;1.80;;
39264;SDS011;42646;51.910;7.724;2023-08-07T01:04:35;3.22;;;1.80;;
39264;SDS011;42646;51.910;7.724;2023-08-07T01:07:05;3.13;;;1.75;;
39264;SDS011;42646;51.910;7.724;2023-08-07T01:09:35;3.42;;;1.85;;
39264;SDS011;42646;51.910;7.724;2023-08-07T01:12:06;3.08;;;2.00;;
39264;SDS011;42646;51.910;7.724;2023-08-07T01:14:42;3.83;;;1.90;;
39264;SDS011;42646;51.910;7.724;2023-08-07T01:17:24;2.63;;;1.60;;
39264;SDS011;42646;51.910;7.724;2023-08-07T01:19:53;2.80;;;1.80;;
39264;SDS011;42646;51.910;7.724;2023-08-07T01:22:28;3.22;;;1.83;;
39264;SDS011;42646;51.910;7.724;2023-08-07T01:24:56;4.10;;;2.00;;
39264;SDS011;42646;51.910;7.724;2023-08-07T01:27:27;3.65;;;2.10;;
39264;SDS011;42646;51.910;7.724;2023-08-07T01:30:06;3.15;;;2.20;;
39264;SDS011;42646;51.910;7.724;2023-08-07T01:32:43;3.00;;;2.10;;
39264;SDS011;42646;51.910;7.724;2023-08-07T01:35:19;4.15;;;2.10;;
39264;SDS011;42646;51.910;7.724;2023-08-07T01:38:18;3.22;;;2.05;;
39264;SDS011;42646;51.910;7.724;2023-08-07T01:40:51;4.60;;;2.20;;
39264;SDS011;42646;51.910;7.724;2023-08-07T01:43:21;5.90;;;2.58;;
39264;SDS011;42646;51.910;7.724;2023-08-07T01:45:49;3.95;;;2.30;;
39264;SDS011;42646;51.910;7.724;2023-08-07T01:48:17;3.72;;;2.30;;
39264;SDS011;42646;51.910;7.724;2023-08-07T01:50:45;3.83;;;2.22;;
39264;SDS011;42646;51.910;7.724;2023-08-07T01:53:13;3.15;;;2.10;;
39264;SDS011;42646;51.910;7.724;2023-08-07T01:55:43;4.10;;;2.47;;
39264;SDS011;42646;51.910;7.724;2023-08-07T01:58:11;3.42;;;2.20;;
39264;SDS011;42646;51.910;7.724;2023-08-07T02:00:41;4.15;;;2.45;;
39264;SDS011;42646;51.910;7.724;2023-08-07T02:03:09;3.60;;;2.10;;
39264;SDS011;42646;51.910;7.724;2023-08-07T02:05:37;3.30;;;2.20;;
39264;SDS011;42646;51.910;7.724;2023-08-07T02:08:06;3.50;;;2.40;;
39264;SDS011;42646;51.910;7.724;2023-08-07T02:10:36;4.03;;;2.38;;
39264;SDS011;42646;51.910;7.724;2023-08-07T02:13:05;3.50;;;2.50;;
39264;SDS011;42646;51.910;7.724;2023-08-07T02:15:34;4.03;;;2.50;;
39264;SDS011;42646;51.910;7.724;2023-08-07T02:18:02;3.78;;;2.50;;
39264;SDS011;42646;51.910;7.724;2023-08-07T02:20:31;3.55;;;2.45;;
39264;SDS011;42646;51.910;7.724;2023-08-07T02:22:59;4.85;;;2.10;;
39264;SDS011;42646;51.910;7.724;2023-08-07T02:28:24;3.50;;;1.90;;
39264;SDS011;42646;51.910;7.724;2023-08-07T02:30:53;3.17;;;1.60;;
39264;SDS011;42646;51.910;7.724;2023-08-07T02:33:21;3.42;;;1.70;;
39264;SDS011;42646;51.910;7.724;2023-08-07T02:35:50;2.58;;;1.65;;
39264;SDS011;42646;51.910;7.724;2023-08-07T02:38:19;3.08;;;1.88;;
39264;SDS011;42646;51.910;7.724;2023-08-07T02:40:47;2.55;;;1.45;;
39264;SDS011;42646;51.910;7.724;2023-08-07T02:43:15;2.90;;;1.60;;
39264;SDS011;42646;51.910;7.724;2023-08-07T02:45:44;1.85;;;1.13;;
39264;SDS011;42646;51.910;7.724;2023-08-07T02:48:12;2.53;;;1.20;;
39264;SDS011;42646;51.910;7.724;2023-08-07T02:50:40;2.75;;;1.27;;
39264;SDS011;42646;51.910;7.724;2023-08-07T02:53:09;1.73;;;1.10;;
39264;SDS011;42646;51.910;7.724;2023-08-07T02:55:38;1.27;;;1.02;;
39264;SDS011;42646;51.910;7.724;2023-08-07T02:58:06;2.03;;;0.90;;
39264;SDS011;42646;51.910;7.724;2023-08-07T03:00:34;1.42;;;0.90;;
39264;SDS011;42646;51.910;7.724;2023-08-07T03:03:04;2.08;;;0.90;;
39264;SDS011;42646;51.910;7.724;2023-08-07T03:05:37;1.38;;;0.90;;
39264;SDS011;42646;51.910;7.724;2023-08-07T03:08:05;1.52;;;0.90;;
39264;SDS011;42646;51.910;7.724;2023-08-07T03:10:33;1.50;;;1.00;;
39264;SDS011;42646;51.910;7.724;2023-08-07T03:13:01;1.40;;;1.00;;
39264;SDS011;42646;51.910;7.724;2023-08-07T03:15:30;1.58;;;1.00;;
39264;SDS011;42646;51.910;7.724;2023-08-07T03:17:59;1.85;;;1.00;;
39264;SDS011;42646;51.910;7.724;2023-08-07T03:20:29;2.08;;;1.00;;
39264;SDS011;42646;51.910;7.724;2023-08-07T03:22:57;1.33;;;0.90;;
39264;SDS011;42646;51.910;7.724;2023-08-07T03:25:25;1.88;;;1.00;;
39264;SDS011;42646;51.910;7.724;2023-08-07T03:27:53;2.40;;;1.15;;
39264;SDS011;42646;51.910;7.724;2023-08-07T03:30:21;2.03;;;1.10;;
39264;SDS011;42646;51.910;7.724;2023-08-07T03:32:51;2.63;;;1.13;;
39264;SDS011;42646;51.910;7.724;2023-08-07T03:35:20;1.67;;;1.10;;
39264;SDS011;42646;51.910;7.724;2023-08-07T03:37:50;2.80;;;1.25;;
39264;SDS011;42646;51.910;7.724;2023-08-07T03:40:18;4.03;;;1.40;;
39264;SDS011;42646;51.910;7.724;2023-08-07T03:42:46;3.10;;;1.30;;
39264;SDS011;42646;51.910;7.724;2023-08-07T03:45:18;2.45;;;1.30;;
39264;SDS011;42646;51.910;7.724;2023-08-07T03:47:47;2.97;;;1.30;;
39264;SDS011;42646;51.910;7.724;2023-08-07T03:50:15;3.22;;;1.58;;
39264;SDS011;42646;51.910;7.724;2023-08-07T03:52:43;2.58;;;1.30;;
39264;SDS011;42646;51.910;7.724;2023-08-07T03:55:13;2.17;;;1.25;;
39264;SDS011;42646;51.910;7.724;2023-08-07T03:58:07;2.65;;;1.30;;
39264;SDS011;42646;51.910;7.724;2023-08-07T04:00:35;1.80;;;1.10;;
39264;SDS011;42646;51.910;7.724;2023-08-07T04:03:05;1.80;;;1.30;;
39264;SDS011;42646;51.910;7.724;2023-08-07T04:05:33;2.20;;;1.20;;
39264;SDS011;42646;51.910;7.724;2023-08-07T04:08:02;2.03;;;1.10;;
39264;SDS011;42646;51.910;7.724;2023-08-07T04:10:32;1.55;;;1.10;;
39264;SDS011;42646;51.910;7.724;2023-08-07T04:13:01;1.90;;;1.00;;
39264;SDS011;42646;51.910;7.724;2023-08-07T04:15:30;1.40;;;0.80;;
39264;SDS011;42646;51.910;7.724;2023-08-07T04:17:58;1.35;;;0.93;;
39264;SDS011;42646;51.910;7.724;2023-08-07T04:20:27;1.80;;;1.10;;
39264;SDS011;42646;51.910;7.724;2023-08-07T04:22:55;1.10;;;0.90;;
39264;SDS011;42646;51.910;7.724;2023-08-07T04:25:23;2.00;;;1.00;;
39264;SDS011;42646;51.910;7.724;2023-08-07T04:27:52;1.42;;;0.90;;
39264;SDS011;42646;51.910;7.724;2023-08-07T04:30:19;1.52;;;1.00;;
39264;SDS011;42646;51.910;7.724;2023-08-07T04:32:47;1.55;;;1.00;;
39264;SDS011;42646;51.910;7.724;2023-08-07T04:35:18;1.40;;;0.98;;
39264;SDS011;42646;51.910;7.724;2023-08-07T04:37:46;2.15;;;1.25;;
39264;SDS011;42646;51.910;7.724;2023-08-07T04:40:13;1.58;;;1.00;;
39264;SDS011;42646;51.910;7.724;2023-08-07T04:42:41;2.47;;;0.90;;
39264;SDS011;42646;51.910;7.724;2023-08-07T04:45:10;2.65;;;1.20;;
39264;SDS011;42646;51.910;7.724;2023-08-07T04:47:38;2.20;;;1.00;;
39264;SDS011;42646;51.910;7.724;2023-08-07T04:50:06;2.38;;;1.10;;
39264;SDS011;42646;51.910;7.724;2023-08-07T04:53:01;2.72;;;1.35;;
39264;SDS011;42646;51.910;7.724;2023-08-07T04:55:32;1.48;;;1.00;;
39264;SDS011;42646;51.910;7.724;2023-08-07T04:58:00;2.28;;;1.30;;
39264;SDS011;42646;51.910;7.724;2023-08-07T05:00:29;2.58;;;1.17;;
39264;SDS011;42646;51.910;7.724;2023-08-07T05:02:59;2.83;;;1.43;;
39264;SDS011;42646;51.910;7.724;2023-08-07T05:05:28;2.20;;;1.20;;
39264;SDS011;42646;51.910;7.724;2023-08-07T05:07:57;2.60;;;1.33;;
39264;SDS011;42646;51.910;7.724;2023-08-07T05:10:26;2.92;;;1.48;;
39264;SDS011;42646;51.910;7.724;2023-08-07T05:13:18;2.70;;;1.25;;
39264;SDS011;42646;51.910;7.724;2023-08-07T05:15:47;2.33;;;1.20;;
39264;SDS011;42646;51.910;7.724;2023-08-07T05:18:15;2.40;;;1.10;;
39264;SDS011;42646;51.910;7.724;2023-08-07T05:20:47;3.75;;;1.20;;
39264;SDS011;42646;51.910;7.724;2023-08-07T05:23:15;2.20;;;1.10;;
39264;SDS011;42646;51.910;7.724;2023-08-07T05:25:44;2.95;;;1.17;;
39264;SDS011;42646;51.910;7.724;2023-08-07T05:28:15;1.73;;;1.00;;
39264;SDS011;42646;51.910;7.724;2023-08-07T05:30:43;3.92;;;1.20;;
39264;SDS011;42646;51.910;7.724;2023-08-07T05:33:12;2.70;;;1.20;;
39264;SDS011;42646;51.910;7.724;2023-08-07T05:35:41;3.13;;;1.30;;
39264;SDS011;42646;51.910;7.724;2023-08-07T05:38:09;2.17;;;1.20;;
39264;SDS011;42646;51.910;7.724;2023-08-07T05:40:37;2.67;;;1.25;;
39264;SDS011;42646;51.910;7.724;2023-08-07T05:43:08;2.40;;;1.20;;
39264;SDS011;42646;51.910;7.724;2023-08-07T05:45:37;2.50;;;1.30;;
39264;SDS011;42646;51.910;7.724;2023-08-07T05:48:06;3.10;;;1.35;;
39264;SDS011;42646;51.910;7.724;2023-08-07T05:50:36;2.70;;;1.30;;
39264;SDS011;42646;51.910;7.724;2023-08-07T05:53:04;2.83;;;1.48;;
39264;SDS011;42646;51.910;7.724;2023-08-07T05:55:38;3.33;;;1.60;;
39264;SDS011;42646;51.910;7.724;2023-08-07T05:58:07;3.50;;;1.73;;
39264;SDS011;42646;51.910;7.724;2023-08-07T06:00:37;3.25;;;1.40;;
39264;SDS011;42646;51.910;7.724;2023-08-07T06:03:05;4.18;;;1.65;;
39264;SDS011;42646;51.910;7.724;2023-08-07T06:05:33;3.50;;;1.70;;
39264;SDS011;42646;51.910;7.724;2023-08-07T06:08:02;3.63;;;1.70;;
39264;SDS011;42646;51.910;7.724;2023-08-07T06:10:31;4.47;;;1.63;;
39264;SDS011;42646;51.910;7.724;2023-08-07T06:12:59;3.90;;;1.60;;
39264;SDS011;42646;51.910;7.724;2023-08-07T06:15:29;2.95;;;1.50;;
39264;SDS011;42646;51.910;7.724;2023-08-07T06:17:56;4.70;;;1.77;;
39264;SDS011;42646;51.910;7.724;2023-08-07T06:20:24;3.90;;;1.70;;
39264;SDS011;42646;51.910;7.724;2023-08-07T06:23:19;3.13;;;1.60;;
39264;SDS011;42646;51.910;7.724;2023-08-07T06:25:46;4.22;;;1.90;;
39264;SDS011;42646;51.910;7.724;2023-08-07T06:28:15;3.55;;;1.67;;
39264;SDS011;42646;51.910;7.724;2023-08-07T06:30:43;5.28;;;2.10;;
39264;SDS011;42646;51.910;7.724;2023-08-07T06:33:11;3.78;;;1.70;;
39264;SDS011;42646;51.910;7.724;2023-08-07T06:35:40;3.70;;;1.75;;
39264;SDS011;42646;51.910;7.724;2023-08-07T06:38:09;5.25;;;1.92;;
39264;SDS011;42646;51.910;7.724;2023-08-07T06:41:02;4.28;;;1.75;;
39264;SDS011;42646;51.910;7.724;2023-08-07T06:43:31;4.18;;;1.90;;
39264;SDS011;42646;51.910;7.724;2023-08-07T06:46:00;3.38;;;2.00;;
39264;SDS011;42646;51.910;7.724;2023-08-07T06:48:28;3.30;;;1.80;;
39264;SDS011;42646;51.910;7.724;2023-08-07T06:50:56;3.20;;;1.80;;
39264;SDS011;42646;51.910;7.724;2023-08-07T06:53:24;5.57;;;2.35;;
39264;SDS011;42646;51.910;7.724;2023-08-07T06:55:54;3.65;;;1.70;;
39264;SDS011;42646;51.910;7.724;2023-08-07T06:58:24;5.47;;;1.90;;
39264;SDS011;42646;51.910;7.724;2023-08-07T07:00:53;3.47;;;1.95;;
39264;SDS011;42646;51.910;7.724;2023-08-07T07:03:21;4.00;;;1.98;;
39264;SDS011;42646;51.910;7.724;2023-08-07T07:05:49;4.40;;;2.10;;
39264;SDS011;42646;51.910;7.724;2023-08-07T07:08:18;4.05;;;1.90;;
39264;SDS011;42646;51.910;7.724;2023-08-07T07:10:46;3.97;;;1.90;;
39264;SDS011;42646;51.910;7.724;2023-08-07T07:13:14;4.63;;;2.03;;
39264;SDS011;42646;51.910;7.724;2023-08-07T07:15:43;3.90;;;2.00;;
39264;SDS011;42646;51.910;7.724;2023-08-07T07:18:13;4.30;;;2.25;;
39264;SDS011;42646;51.910;7.724;2023-08-07T07:20:41;4.18;;;2.20;;
39264;SDS011;42646;51.910;7.724;2023-08-07T07:23:09;3.72;;;1.88;;
39264;SDS011;42646;51.910;7.724;2023-08-07T07:25:40;5.97;;;2.30;;
39264;SDS011;42646;51.910;7.724;2023-08-07T07:28:08;5.90;;;2.00;;
39264;SDS011;42646;51.910;7.724;2023-08-07T07:30:36;6.85;;;2.65;;
39264;SDS011;42646;51.910;7.724;2023-08-07T07:33:07;4.75;;;2.15;;
39264;SDS011;42646;51.910;7.724;2023-08-07T07:35:37;4.10;;;1.98;;
39264;SDS011;42646;51.910;7.724;2023-08-07T07:38:05;3.97;;;2.28;;
39264;SDS011;42646;51.910;7.724;2023-08-07T07:40:33;4.20;;;2.17;;
39264;SDS011;42646;51.910;7.724;2023-08-07T07:43:02;6.70;;;2.38;;
39264;SDS011;42646;51.910;7.724;2023-08-07T07:45:30;5.20;;;2.38;;
39264;SDS011;42646;51.910;7.724;2023-08-07T07:48:00;5.45;;;2.47;;
39264;SDS011;42646;51.910;7.724;2023-08-07T07:50:29;5.00;;;2.63;;
39264;SDS011;42646;51.910;7.724;2023-08-07T07:52:58;5.72;;;2.50;;
39264;SDS011;42646;51.910;7.724;2023-08-07T07:55:26;7.03;;;2.70;;
39264;SDS011;42646;51.910;7.724;2023-08-07T07:57:54;5.47;;;2.70;;
39264;SDS011;42646;51.910;7.724;2023-08-07T08:00:23;6.45;;;2.58;;
39264;SDS011;42646;51.910;7.724;2023-08-07T08:02:54;7.15;;;2.83;;
39264;SDS011;42646;51.910;7.724;2023-08-07T08:05:23;7.03;;;3.08;;
39264;SDS011;42646;51.910;7.724;2023-08-07T08:08:16;7.53;;;2.30;;
39264;SDS011;42646;51.910;7.724;2023-08-07T08:10:46;8.23;;;2.55;;
39264;SDS011;42646;51.910;7.724;2023-08-07T08:13:15;4.28;;;1.55;;
39264;SDS011;42646;51.910;7.724;2023-08-07T08:15:43;2.83;;;1.60;;
39264;SDS011;42646;51.910;7.724;2023-08-07T08:18:12;4.07;;;1.70;;
39264;SDS011;42646;51.910;7.724;2023-08-07T08:20:40;4.40;;;1.50;;
39264;SDS011;42646;51.910;7.724;2023-08-07T08:23:08;3.83;;;1.55;;
39264;SDS011;42646;51.910;7.724;2023-08-07T08:25:38;4.03;;;1.52;;
39264;SDS011;42646;51.910;7.724;2023-08-07T08:28:06;3.63;;;1.50;;
39264;SDS011;42646;51.910;7.724;2023-08-07T08:30:36;2.78;;;1.55;;
39264;SDS011;42646;51.910;7.724;2023-08-07T08:33:04;4.25;;;1.73;;
39264;SDS011;42646;51.910;7.724;2023-08-07T08:35:33;4.53;;;2.10;;
39264;SDS011;42646;51.910;7.724;2023-08-07T08:38:01;8.85;;;2.50;;
39264;SDS011;42646;51.910;7.724;2023-08-07T08:40:30;5.20;;;2.25;;
39264;SDS011;42646;51.910;7.724;2023-08-07T08:45:32;5.95;;;2.75;;
39264;SDS011;42646;51.910;7.724;2023-08-07T08:48:03;5.68;;;2.72;;
39264;SDS011;42646;51.910;7.724;2023-08-07T08:50:32;8.32;;;3.22;;
39264;SDS011;42646;51.910;7.724;2023-08-07T08:53:01;7.45;;;2.80;;
39264;SDS011;42646;51.910;7.724;2023-08-07T08:55:30;7.47;;;2.92;;
39264;SDS011;42646;51.910;7.724;2023-08-07T08:57:58;7.28;;;2.85;;
39264;SDS011;42646;51.910;7.724;2023-08-07T09:00:29;12.07;;;3.13;;
39264;SDS011;42646;51.910;7.724;2023-08-07T09:02:58;8.40;;;3.00;;
39264;SDS011;42646;51.910;7.724;2023-08-07T09:05:28;8.50;;;3.28;;
39264;SDS011;42646;51.910;7.724;2023-08-07T09:07:57;8.40;;;3.05;;
39264;SDS011;42646;51.910;7.724;2023-08-07T09:10:26;7.78;;;2.78;;
39264;SDS011;42646;51.910;7.724;2023-08-07T09:12:57;6.70;;;2.58;;
39264;SDS011;42646;51.910;7.724;2023-08-07T09:15:31;6.63;;;2.60;;
39264;SDS011;42646;51.910;7.724;2023-08-07T09:18:01;5.50;;;2.53;;
39264;SDS011;42646;51.910;7.724;2023-08-07T09:20:35;9.10;;;3.22;;
39264;SDS011;42646;51.910;7.724;2023-08-07T09:23:07;12.95;;;3.10;;
39264;SDS011;42646;51.910;7.724;2023-08-07T09:25:59;6.90;;;2.92;;
39264;SDS011;42646;51.910;7.724;2023-08-07T09:28:28;8.95;;;3.38;;
39264;SDS011;42646;51.910;7.724;2023-08-07T09:30:59;7.05;;;2.90;;
39264;SDS011;42646;51.910;7.724;2023-08-07T09:33:28;6.90;;;2.92;;
39264;SDS011;42646;51.910;7.724;2023-08-07T09:35:58;8.25;;;3.40;;
39264;SDS011;42646;51.910;7.724;2023-08-07T09:38:28;8.57;;;2.85;;
39264;SDS011;42646;51.910;7.724;2023-08-07T09:40:58;11.82;;;2.95;;
39264;SDS011;42646;51.910;7.724;2023-08-07T09:43:27;9.80;;;2.78;;
39264;SDS011;42646;51.910;7.724;2023-08-07T09:46:03;11.02;;;2.83;;
39264;SDS011;42646;51.910;7.724;2023-08-07T09:48:31;7.95;;;3.05;;
39264;SDS011;42646;51.910;7.724;2023-08-07T09:51:01;6.68;;;2.65;;
39264;SDS011;42646;51.910;7.724;2023-08-07T09:53:31;7.85;;;2.95;;
39264;SDS011;42646;51.910;7.724;2023-08-07T09:55:59;8.35;;;2.92;;
39264;SDS011;42646;51.910;7.724;2023-08-07T09:58:28;6.38;;;2.53;;
39264;SDS011;42646;51.910;7.724;2023-08-07T10:00:58;10.50;;;3.17;;
39264;SDS011;42646;51.910;7.724;2023-08-07T10:03:28;7.22;;;2.47;;
39264;SDS011;42646;51.910;7.724;2023-08-07T10:05:57;6.70;;;2.83;;
39264;SDS011;42646;51.910;7.724;2023-08-07T10:08:29;8.60;;;2.77;;
39264;SDS011;42646;51.910;7.724;2023-08-07T10:11:02;7.05;;;2.70;;
39264;SDS011;42646;51.910;7.724;2023-08-07T10:13:30;7.93;;;2.63;;
39264;SDS011;42646;51.910;7.724;2023-08-07T10:16:05;8.30;;;2.50;;
39264;SDS011;42646;51.910;7.724;2023-08-07T10:18:37;8.77;;;2.83;;
39264;SDS011;42646;51.910;7.724;2023-08-07T10:21:09;10.73;;;2.88;;
39264;SDS011;42646;51.910;7.724;2023-08-07T10:23:42;7.88;;;2.50;;
39264;SDS011;42646;51.910;7.724;2023-08-07T10:26:12;8.20;;;2.65;;
39264;SDS011;42646;51.910;7.724;2023-08-07T10:29:08;8.05;;;2.70;;
39264;SDS011;42646;51.910;7.724;2023-08-07T10:31:38;7.63;;;2.65;;
39264;SDS011;42646;51.910;7.724;2023-08-07T10:34:11;4.38;;;2.10;;
39264;SDS011;42646;51.910;7.724;2023-08-07T10:36:39;7.00;;;2.50;;
39264;SDS011;42646;51.910;7.724;2023-08-07T10:39:08;9.00;;;2.83;;
39264;SDS011;42646;51.910;7.724;2023-08-07T10:42:03;6.35;;;2.40;;
39264;SDS011;42646;51.910;7.724;2023-08-07T10:44:32;9.48;;;2.60;;
39264;SDS011;42646;51.910;7.724;2023-08-07T10:47:02;6.82;;;3.15;;
39264;SDS011;42646;51.910;7.724;2023-08-07T10:49:32;6.57;;;2.67;;
39264;SDS011;42646;51.910;7.724;2023-08-07T10:52:07;6.85;;;2.17;;
39264;SDS011;42646;51.910;7.724;2023-08-07T10:54:37;6.07;;;2.20;;
39264;SDS011;42646;51.910;7.724;2023-08-07T10:59:43;8.05;;;2.72;;
39264;SDS011;42646;51.910;7.724;2023-08-07T11:02:12;4.82;;;2.00;;
39264;SDS011;42646;51.910;7.724;2023-08-07T11:04:45;6.15;;;2.20;;
39264;SDS011;42646;51.910;7.724;2023-08-07T11:07:21;5.18;;;2.00;;
39264;SDS011;42646;51.910;7.724;2023-08-07T11:09:50;7.97;;;2.45;;
39264;SDS011;42646;51.910;7.724;2023-08-07T11:12:18;5.88;;;2.10;;
39264;SDS011;42646;51.910;7.724;2023-08-07T11:14:46;7.20;;;2.58;;
39264;SDS011;42646;51.910;7.724;2023-08-07T11:17:15;7.07;;;2.55;;
39264;SDS011;42646;51.910;7.724;2023-08-07T11:19:44;7.30;;;2.30;;
39264;SDS011;42646;51.910;7.724;2023-08-07T11:22:15;8.80;;;2.70;;
39264;SDS011;42646;51.910;7.724;2023-08-07T11:24:43;9.55;;;3.13;;
39264;SDS011;42646;51.910;7.724;2023-08-07T11:27:13;8.23;;;2.28;;
39264;SDS011;42646;51.910;7.724;2023-08-07T11:30:11;8.75;;;2.60;;
39264;SDS011;42646;51.910;7.724;2023-08-07T11:32:43;7.65;;;2.22;;
39264;SDS011;42646;51.910;7.724;2023-08-07T11:38:09;10.45;;;3.10;;
39264;SDS011;42646;51.910;7.724;2023-08-07T11:40:37;7.63;;;2.60;;
39264;SDS011;42646;51.910;7.724;2023-08-07T11:43:05;5.10;;;2.15;;
39264;SDS011;42646;51.910;7.724;2023-08-07T11:45:34;10.18;;;2.70;;
39264;SDS011;42646;51.910;7.724;2023-08-07T11:48:04;6.55;;;2.40;;
39264;SDS011;42646;51.910;7.724;2023-08-07T11:50:32;6.30;;;2.40;;
39264;SDS011;42646;51.910;7.724;2023-08-07T11:53:01;5.25;;;2.10;;
39264;SDS011;42646;51.910;7.724;2023-08-07T11:55:29;5.47;;;2.20;;
39264;SDS011;42646;51.910;7.724;2023-08-07T11:57:59;7.78;;;2.55;;
39264;SDS011;42646;51.910;7.724;2023-08-07T12:00:27;5.45;;;2.38;;
39264;SDS011;42646;51.910;7.724;2023-08-07T12:02:56;6.72;;;2.03;;
39264;SDS011;42646;51.910;7.724;2023-08-07T12:05:24;4.72;;;1.90;;
39264;SDS011;42646;51.910;7.724;2023-08-07T12:07:52;3.90;;;1.60;;
39264;SDS011;42646;51.910;7.724;2023-08-07T12:10:21;8.63;;;1.90;;
39264;SDS011;42646;51.910;7.724;2023-08-07T12:12:50;7.32;;;2.10;;
39264;SDS011;42646;51.910;7.724;2023-08-07T12:15:18;4.72;;;1.65;;
39264;SDS011;42646;51.910;7.724;2023-08-07T12:17:47;4.97;;;2.03;;
39264;SDS011;42646;51.910;7.724;2023-08-07T12:20:15;7.35;;;1.98;;
39264;SDS011;42646;51.910;7.724;2023-08-07T12:22:43;9.10;;;2.13;;
39264;SDS011;42646;51.910;7.724;2023-08-07T12:25:11;5.72;;;1.90;;
39264;SDS011;42646;51.910;7.724;2023-08-07T12:27:40;7.03;;;1.90;;
39264;SDS011;42646;51.910;7.724;2023-08-07T12:30:08;8.18;;;2.10;;
39264;SDS011;42646;51.910;7.724;2023-08-07T12:32:36;6.75;;;2.08;;
39264;SDS011;42646;51.910;7.724;2023-08-07T12:35:04;6.88;;;1.98;;
39264;SDS011;42646;51.910;7.724;2023-08-07T12:37:37;7.07;;;2.22;;
39264;SDS011;42646;51.910;7.724;2023-08-07T12:40:05;5.20;;;2.40;;
39264;SDS011;42646;51.910;7.724;2023-08-07T12:42:38;8.13;;;2.38;;
39264;SDS011;42646;51.910;7.724;2023-08-07T12:45:09;6.85;;;2.10;;
39264;SDS011;42646;51.910;7.724;2023-08-07T12:47:38;6.80;;;2.28;;
39264;SDS011;42646;51.910;7.724;2023-08-07T12:50:08;6.80;;;2.10;;
39264;SDS011;42646;51.910;7.724;2023-08-07T12:52:37;6.95;;;2.28;;
39264;SDS011;42646;51.910;7.724;2023-08-07T12:55:06;6.13;;;2.03;;
39264;SDS011;42646;51.910;7.724;2023-08-07T12:57:34;4.90;;;1.88;;
39264;SDS011;42646;51.910;7.724;2023-08-07T13:00:02;5.68;;;1.98;;
39264;SDS011;42646;51.910;7.724;2023-08-07T13:02:32;5.93;;;2.30;;
39264;SDS011;42646;51.910;7.724;2023-08-07T13:05:00;6.72;;;2.15;;
39264;SDS011;42646;51.910;7.724;2023-08-07T13:07:28;6.70;;;2.38;;
39264;SDS011;42646;51.910;7.724;2023-08-07T13:09:56;7.93;;;2.33;;
39264;SDS011;42646;51.910;7.724;2023-08-07T13:12:24;5.72;;;2.00;;
39264;SDS011;42646;51.910;7.724;2023-08-07T13:14:52;7.20;;;1.98;;
39264;SDS011;42646;51.910;7.724;2023-08-07T13:17:20;6.70;;;2.05;;
39264;SDS011;42646;51.910;7.724;2023-08-07T13:19:50;5.60;;;2.03;;
39264;SDS011;42646;51.910;7.724;2023-08-07T13:22:17;6.28;;;2.20;;
39264;SDS011;42646;51.910;7.724;2023-08-07T13:24:45;5.03;;;2.08;;
39264;SDS011;42646;51.910;7.724;2023-08-07T13:27:13;9.00;;;2.05;;
39264;SDS011;42646;51.910;7.724;2023-08-07T13:29:40;9.32;;;2.03;;
39264;SDS011;42646;51.910;7.724;2023-08-07T13:32:08;5.47;;;2.10;;
39264;SDS011;42646;51.910;7.724;2023-08-07T13:34:37;6.95;;;1.88;;
39264;SDS011;42646;51.910;7.724;2023-08-07T13:37:07;4.72;;;1.92;;
39264;SDS011;42646;51.910;7.724;2023-08-07T13:40:24;5.47;;;2.05;;
39264;SDS011;42646;51.910;7.724;2023-08-07T13:42:52;6.25;;;1.95;;
39264;SDS011;42646;51.910;7.724;2023-08-07T13:45:20;8.00;;;2.10;;
39264;SDS011;42646;51.910;7.724;2023-08-07T13:47:48;6.95;;;2.53;;
39264;SDS011;42646;51.910;7.724;2023-08-07T13:50:16;5.40;;;2.00;;
39264;SDS011;42646;51.910;7.724;2023-08-07T13:52:45;7.60;;;1.92;;
39264;SDS011;42646;51.910;7.724;2023-08-07T13:55:34;5.05;;;2.10;;
39264;SDS011;42646;51.910;7.724;2023-08-07T13:58:02;10.02;;;3.10;;
39264;SDS011;42646;51.910;7.724;2023-08-07T14:00:35;6.38;;;2.47;;
39264;SDS011;42646;51.910;7.724;2023-08-07T14:03:03;6.47;;;2.17;;
39264;SDS011;42646;51.910;7.724;2023-08-07T14:05:31;6.75;;;1.73;;
39264;SDS011;42646;51.910;7.724;2023-08-07T14:08:00;9.52;;;2.28;;
39264;SDS011;42646;51.910;7.724;2023-08-07T14:10:28;5.68;;;1.90;;
39264;SDS011;42646;51.910;7.724;2023-08-07T14:12:56;4.13;;;1.90;;
39264;SDS011;42646;51.910;7.724;2023-08-07T14:15:24;7.20;;;2.55;;
39264;SDS011;42646;51.910;7.724;2023-08-07T14:17:52;6.68;;;2.17;;
39264;SDS011;42646;51.910;7.724;2023-08-07T14:20:20;6.30;;;2.38;;
39264;SDS011;42646;51.910;7.724;2023-08-07T14:22:49;6.05;;;2.10;;
39264;SDS011;42646;51.910;7.724;2023-08-07T14:25:23;6.13;;;2.00;;
39264;SDS011;42646;51.910;7.724;2023-08-07T14:27:50;4.60;;;1.73;;
39264;SDS011;42646;51.910;7.724;2023-08-07T14:30:18;5.72;;;1.77;;
39264;SDS011;42646;51.910;7.724;2023-08-07T14:32:46;5.07;;;1.90;;
39264;SDS011;42646;51.910;7.724;2023-08-07T14:35:14;6.32;;;1.85;;
39264;SDS011;42646;51.910;7.724;2023-08-07T14:37:42;3.60;;;1.60;;
39264;SDS011;42646;51.910;7.724;2023-08-07T14:40:10;4.32;;;1.90;;
39264;SDS011;42646;51.910;7.724;2023-08-07T14:42:41;4.80;;;1.70;;
39264;SDS011;42646;51.910;7.724;2023-08-07T14:45:09;3.22;;;1.60;;
39264;SDS011;42646;51.910;7.724;2023-08-07T14:47:37;6.50;;;1.80;;
39264;SDS011;42646;51.910;7.724;2023-08-07T14:50:05;3.50;;;1.75;;
39264;SDS011;42646;51.910;7.724;2023-08-07T14:52:34;4.88;;;1.70;;
39264;SDS011;42646;51.910;7.724;2023-08-07T14:55:03;4.03;;;1.63;;
39264;SDS011;42646;51.910;7.724;2023-08-07T14:57:35;3.85;;;1.55;;
39264;SDS011;42646;51.910;7.724;2023-08-07T15:00:05;3.08;;;1.50;;
39264;SDS011;42646;51.910;7.724;2023-08-07T15:02:35;4.63;;;1.70;;
39264;SDS011;42646;51.910;7.724;2023-08-07T15:05:03;2.92;;;1.60;;
39264;SDS011;42646;51.910;7.724;2023-08-07T15:07:31;3.67;;;1.67;;
39264;SDS011;42646;51.910;7.724;2023-08-07T15:09:59;3.38;;;1.70;;
39264;SDS011;42646;51.910;7.724;2023-08-07T15:12:26;4.53;;;1.90;;
39264;SDS011;42646;51.910;7.724;2023-08-07T15:14:54;4.10;;;1.55;;